createdAt,value
2022-08-10T00:00:52.278Z,39.46
2022-08-10T00:03:20.118Z,39.64
2022-08-10T00:05:52.774Z,39.57
2022-08-10T00:08:23.809Z,40.10
2022-08-10T00:10:51.947Z,40.10
2022-08-10T00:13:19.955Z,39.77
2022-08-10T00:15:53.669Z,39.80
2022-08-10T00:18:34.996Z,39.76
2022-08-10T00:21:03.935Z,39.75
2022-08-10T00:23:31.627Z,39.65
2022-08-10T00:25:59.418Z,39.92
2022-08-10T00:28:27.213Z,39.82
2022-08-10T00:30:54.946Z,39.71
2022-08-10T00:33:22.781Z,40.03
2022-08-10T00:35:50.521Z,40.13
2022-08-10T00:38:18.425Z,39.96
2022-08-10T00:40:47.045Z,40.06
2022-08-10T00:43:14.790Z,39.82
2022-08-10T00:45:59.514Z,39.54
2022-08-10T00:48:28.222Z,40.12
2022-08-10T00:50:56.093Z,39.85
2022-08-10T00:53:23.888Z,39.97
2022-08-10T00:57:17.037Z,40.15
2022-08-10T00:58:41.719Z,39.99
2022-08-10T01:01:23.533Z,39.65
2022-08-10T01:04:40.159Z,40.10
2022-08-10T01:06:45.108Z,40.08
2022-08-10T01:09:12.980Z,40.03
2022-08-10T01:12:27.757Z,39.91
2022-08-10T01:14:28.609Z,40.02
2022-08-10T01:16:56.342Z,40.18
2022-08-10T01:19:24.105Z,40.08
2022-08-10T01:21:55.229Z,39.90
2022-08-10T01:24:25.362Z,40.17
2022-08-10T01:26:53.166Z,40.08
2022-08-10T01:29:21.002Z,39.88
2022-08-10T01:31:48.692Z,39.84
2022-08-10T01:34:16.501Z,39.94
2022-08-10T01:36:45.937Z,39.94
2022-08-10T01:39:13.921Z,40.16
2022-08-10T01:41:46.381Z,40.21
2022-08-10T01:44:14.765Z,40.07
2022-08-10T01:46:42.606Z,39.99
2022-08-10T01:49:09.280Z,40.01
2022-08-10T01:51:37.135Z,40.36
2022-08-10T01:54:09.354Z,40.10
2022-08-10T01:56:40.658Z,40.02
2022-08-10T01:59:08.452Z,40.13
2022-08-10T02:01:36.307Z,40.34
2022-08-10T02:04:06.135Z,40.27
2022-08-10T02:06:34.046Z,39.80
2022-08-10T02:09:06.417Z,39.73
2022-08-10T02:11:57.539Z,39.84
2022-08-10T02:14:22.650Z,40.44
2022-08-10T02:16:50.590Z,40.27
2022-08-10T02:19:18.466Z,40.16
2022-08-10T02:22:37.527Z,40.01
2022-08-10T02:24:33.872Z,39.64
2022-08-10T02:27:01.566Z,40.12
2022-08-10T02:29:31.356Z,39.76
2022-08-10T02:31:59.052Z,39.81
2022-08-10T02:34:27.638Z,39.91
2022-08-10T02:36:56.058Z,40.12
2022-08-10T02:39:24.099Z,40.22
2022-08-10T02:45:13.074Z,40.30
2022-08-10T02:45:18.780Z,39.79
2022-08-10T02:47:27.832Z,40.00
2022-08-10T02:49:55.533Z,39.89
2022-08-10T02:52:23.235Z,39.95
2022-08-10T02:54:51.122Z,40.09
2022-08-10T02:57:19.443Z,39.85
2022-08-10T02:59:47.320Z,40.23
2022-08-10T03:02:15.030Z,40.07
2022-08-10T03:04:55.275Z,39.79
2022-08-10T03:07:42.793Z,40.15
2022-08-10T03:10:14.465Z,40.08
2022-08-10T03:12:42.573Z,40.12
2022-08-10T03:15:10.318Z,39.75
2022-08-10T03:17:43.781Z,39.83
2022-08-10T03:20:37.956Z,39.93
2022-08-10T03:23:07.012Z,39.83
2022-08-10T03:25:34.786Z,40.03
2022-08-10T03:28:02.693Z,40.05
2022-08-10T03:30:33.406Z,40.19
2022-08-10T03:33:01.964Z,40.05
2022-08-10T03:35:29.775Z,40.00
2022-08-10T03:38:00.069Z,39.90
2022-08-10T03:40:44.975Z,40.03
2022-08-10T03:43:13.660Z,40.09
2022-08-10T03:45:55.152Z,40.30
2022-08-10T03:48:23.960Z,40.29
2022-08-10T03:50:52.704Z,39.99
2022-08-10T03:53:24.878Z,39.96
2022-08-10T03:56:28.982Z,39.94
2022-08-10T03:58:56.246Z,40.12
2022-08-10T04:02:45.459Z,40.36
2022-08-10T04:04:13.807Z,40.33
2022-08-10T04:06:44.492Z,40.08
2022-08-10T04:09:12.258Z,40.14
2022-08-10T04:11:40.820Z,40.14
2022-08-10T04:14:35.582Z,40.39
2022-08-10T04:16:56.265Z,40.30
2022-08-10T04:19:24.190Z,40.86
2022-08-10T04:21:51.977Z,40.47
2022-08-10T04:24:24.851Z,40.61
2022-08-10T04:26:57.608Z,40.60
2022-08-10T04:29:25.335Z,41.00
2022-08-10T04:31:53.238Z,41.15
2022-08-10T04:34:21.549Z,40.85
2022-08-10T04:36:49.301Z,40.82
2022-08-10T04:39:17.057Z,40.71
2022-08-10T04:41:47.475Z,40.96
2022-08-10T04:44:15.405Z,40.59
2022-08-10T04:46:55.866Z,40.64
2022-08-10T04:49:55.277Z,40.52
2022-08-10T04:52:14.518Z,40.76
2022-08-10T04:54:42.219Z,40.45
2022-08-10T04:57:09.970Z,40.82
2022-08-10T04:59:37.667Z,41.20
2022-08-10T05:02:28.965Z,40.81
2022-08-10T05:04:53.018Z,40.56
2022-08-10T05:07:20.752Z,40.92
2022-08-10T05:10:01.176Z,40.69
2022-08-10T05:12:34.483Z,40.30
2022-08-10T05:15:04.423Z,40.71
2022-08-10T05:17:32.176Z,40.75
2022-08-10T05:20:02.100Z,40.67
2022-08-10T05:22:33.076Z,40.75
2022-08-10T05:25:00.881Z,40.67
2022-08-10T05:27:28.628Z,40.62
2022-08-10T05:30:01.714Z,40.84
2022-08-10T05:32:30.722Z,40.44
2022-08-10T05:34:58.722Z,40.84
2022-08-10T05:38:09.694Z,40.47
2022-08-10T05:40:14.119Z,40.83
2022-08-10T05:42:46.915Z,40.57
2022-08-10T05:45:14.675Z,40.66
2022-08-10T05:48:53.801Z,40.57
2022-08-10T05:50:32.198Z,40.53
2022-08-10T05:53:03.739Z,40.22
2022-08-10T05:55:47.742Z,40.32
2022-08-10T05:58:16.784Z,40.59
2022-08-10T06:00:49.722Z,40.70
2022-08-10T06:03:18.343Z,40.53
2022-08-10T06:05:51.961Z,40.50
2022-08-10T06:08:19.685Z,40.77
2022-08-10T06:12:25.527Z,40.65
2022-08-10T06:14:13.388Z,40.75
2022-08-10T06:16:40.764Z,40.36
2022-08-10T06:19:08.497Z,40.59
2022-08-10T06:21:36.160Z,40.17
2022-08-10T06:24:03.841Z,40.65
2022-08-10T06:26:31.497Z,40.54
2022-08-10T06:29:02.679Z,40.33
2022-08-10T06:31:47.834Z,40.29
2022-08-10T06:34:17.231Z,40.50
2022-08-10T06:36:44.909Z,40.39
2022-08-10T06:39:32.997Z,40.37
2022-08-10T06:42:15.756Z,40.67
2022-08-10T06:44:45.199Z,40.38
2022-08-10T06:47:12.963Z,40.43
2022-08-10T06:49:40.681Z,40.57
2022-08-10T06:52:08.418Z,40.49
2022-08-10T06:54:40.817Z,40.11
2022-08-10T06:57:17.902Z,40.23
2022-08-10T06:59:46.071Z,40.33
2022-08-10T07:02:16.619Z,40.09
2022-08-10T07:04:44.360Z,40.19
2022-08-10T07:07:12.090Z,39.99
2022-08-10T07:09:39.766Z,40.14
2022-08-10T07:12:09.105Z,40.06
2022-08-10T07:14:37.194Z,40.05
2022-08-10T07:17:04.939Z,39.59
2022-08-10T07:19:32.723Z,39.71
2022-08-10T07:22:00.383Z,40.21
2022-08-10T07:24:28.109Z,39.74
2022-08-10T07:26:55.773Z,40.31
2022-08-10T07:29:53.290Z,39.96
2022-08-10T07:32:15.758Z,40.07
2022-08-10T07:34:43.633Z,40.38
2022-08-10T07:37:11.322Z,40.05
2022-08-10T07:39:58.253Z,39.99
2022-08-10T07:42:26.861Z,39.88
2022-08-10T07:44:54.662Z,39.99
2022-08-10T07:47:52.990Z,40.00
2022-08-10T07:50:10.023Z,39.72
2022-08-10T07:52:38.150Z,40.02
2022-08-10T07:55:05.867Z,39.74
2022-08-10T07:57:38.171Z,39.75
2022-08-10T08:00:08.032Z,39.86
2022-08-10T08:02:36.039Z,39.63
2022-08-10T08:05:03.850Z,39.88
2022-08-10T08:07:31.516Z,39.75
2022-08-10T08:10:00.777Z,39.51
2022-08-10T08:12:30.624Z,39.81
2022-08-10T08:15:02.556Z,39.76
2022-08-10T08:17:52.541Z,39.75
2022-08-10T08:20:28.855Z,39.67
2022-08-10T08:24:05.430Z,39.70
2022-08-10T08:25:44.364Z,39.78
2022-08-10T08:28:12.192Z,39.75
2022-08-10T08:30:40.067Z,39.81
2022-08-10T08:33:07.887Z,39.67
2022-08-10T08:35:35.613Z,39.74
2022-08-10T08:38:31.569Z,39.80
2022-08-10T08:40:50.910Z,39.37
2022-08-10T08:43:18.813Z,39.58
2022-08-10T08:46:01.901Z,39.72
2022-08-10T08:48:29.963Z,39.71
2022-08-10T08:50:57.920Z,39.51
2022-08-10T08:54:01.629Z,39.59
2022-08-10T08:56:13.353Z,39.77
2022-08-10T08:58:41.095Z,39.49
2022-08-10T09:01:11.215Z,39.67
2022-08-10T09:03:39.454Z,39.67
2022-08-10T09:06:07.199Z,39.71
2022-08-10T09:08:34.863Z,39.42
2022-08-10T09:11:02.591Z,39.31
2022-08-10T09:13:30.715Z,39.57
2022-08-10T09:16:00.798Z,39.61
2022-08-10T09:18:28.624Z,39.08
2022-08-10T09:20:56.329Z,38.82
2022-08-10T09:24:01.985Z,39.13
2022-08-10T09:26:13.259Z,39.40
2022-08-10T09:28:40.942Z,39.09
2022-08-10T09:31:21.868Z,38.92
2022-08-10T09:36:22.960Z,39.35
2022-08-10T09:36:39.135Z,39.16
2022-08-10T09:39:07.248Z,39.22
2022-08-10T09:41:34.995Z,38.91
2022-08-10T09:44:02.870Z,38.94
2022-08-10T09:46:30.784Z,38.90
2022-08-10T09:48:58.702Z,38.82
2022-08-10T09:51:44.777Z,38.69
2022-08-10T09:54:13.876Z,39.16
2022-08-10T09:56:41.632Z,39.11
2022-08-10T09:59:29.291Z,38.96
2022-08-10T10:02:03.721Z,39.40
2022-08-10T10:04:32.018Z,38.92
2022-08-10T10:07:00.269Z,38.98
2022-08-10T10:09:30.134Z,39.08
2022-08-10T10:11:57.903Z,38.78
2022-08-10T10:14:35.897Z,39.02
2022-08-10T10:17:03.631Z,38.58
2022-08-10T10:19:31.764Z,38.64
2022-08-10T10:21:59.458Z,38.53
2022-08-10T10:24:27.192Z,38.67
2022-08-10T10:26:55.021Z,38.84
2022-08-10T10:29:58.671Z,38.93
2022-08-10T10:32:10.553Z,38.55
2022-08-10T10:34:38.310Z,39.00
2022-08-10T10:37:06.589Z,38.93
2022-08-10T10:39:34.323Z,39.06
2022-08-10T10:42:04.556Z,38.90
2022-08-10T10:44:32.720Z,38.66
2022-08-10T10:47:00.418Z,38.69
2022-08-10T10:49:28.928Z,39.11
2022-08-10T10:52:00.113Z,39.12
2022-08-10T10:54:29.963Z,39.02
2022-08-10T10:56:57.626Z,39.20
2022-08-10T10:59:56.181Z,38.94
2022-08-10T11:02:13.064Z,38.53
2022-08-10T11:04:40.776Z,38.74
2022-08-10T11:07:10.414Z,39.16
2022-08-10T11:10:05.973Z,38.86
2022-08-10T11:12:27.537Z,39.06
2022-08-10T11:14:55.369Z,39.10
2022-08-10T11:17:23.036Z,39.21
2022-08-10T11:20:03.031Z,39.24
2022-08-10T11:22:31.412Z,39.46
2022-08-10T11:25:04.707Z,38.88
2022-08-10T11:27:32.413Z,39.05
2022-08-10T11:30:00.182Z,39.04
2022-08-10T11:32:27.852Z,38.60
2022-08-10T11:35:10.628Z,38.92
2022-08-10T11:38:28.447Z,38.86
2022-08-10T11:40:27.748Z,38.48
2022-08-10T11:42:55.489Z,38.42
2022-08-10T11:45:23.503Z,38.81
2022-08-10T11:47:51.285Z,38.91
2022-08-10T11:50:19.013Z,39.17
2022-08-10T11:52:46.771Z,38.91
2022-08-10T11:55:14.888Z,39.02
2022-08-10T11:57:53.843Z,39.10
2022-08-10T12:00:21.678Z,38.99
2022-08-10T12:02:49.542Z,38.98
2022-08-10T12:05:18.136Z,39.19
2022-08-10T12:10:07.220Z,39.18
2022-08-10T12:10:37.449Z,39.52
2022-08-10T12:13:08.056Z,39.26
2022-08-10T12:15:36.831Z,38.90
2022-08-10T12:18:04.648Z,38.74
2022-08-10T12:20:32.561Z,39.17
2022-08-10T12:23:00.324Z,39.03
2022-08-10T12:25:57.182Z,39.55
2022-08-10T12:28:15.910Z,39.38
2022-08-10T12:30:44.076Z,39.33
2022-08-10T12:33:11.802Z,39.01
2022-08-10T12:35:41.968Z,39.35
2022-08-10T12:38:15.328Z,39.07
2022-08-10T12:40:43.054Z,39.03
2022-08-10T12:43:13.378Z,38.70
2022-08-10T12:46:01.824Z,38.84
2022-08-10T12:48:32.255Z,39.13
2022-08-10T12:50:59.976Z,38.92
2022-08-10T12:53:27.710Z,38.95
2022-08-10T12:55:55.443Z,39.21
2022-08-10T12:58:59.044Z,38.66
2022-08-10T13:01:16.452Z,39.37
2022-08-10T13:04:20.799Z,39.15
2022-08-10T13:06:32.742Z,39.46
2022-08-10T13:09:09.752Z,39.25
2022-08-10T13:12:35.690Z,39.50
2022-08-10T13:14:25.126Z,39.25
2022-08-10T13:16:52.820Z,39.55
2022-08-10T13:19:21.530Z,39.70
2022-08-10T13:21:49.195Z,39.17
2022-08-10T13:24:16.966Z,39.25
2022-08-10T13:27:24.848Z,39.31
2022-08-10T13:29:36.154Z,39.43
2022-08-10T13:32:10.618Z,39.33
2022-08-10T13:34:42.464Z,39.52
2022-08-10T13:37:12.493Z,38.79
2022-08-10T13:39:59.424Z,38.75
2022-08-10T13:42:31.677Z,39.04
2022-08-10T13:45:00.366Z,38.83
2022-08-10T13:47:28.380Z,39.23
2022-08-10T13:49:56.041Z,39.14
2022-08-10T13:52:23.833Z,39.16
2022-08-10T13:54:51.852Z,38.64
2022-08-10T13:57:19.549Z,38.88
2022-08-10T14:00:36.352Z,38.98
2022-08-10T14:02:35.773Z,39.41
2022-08-10T14:05:03.638Z,38.75
2022-08-10T14:07:31.319Z,38.34
2022-08-10T14:09:59.402Z,38.19
2022-08-10T14:12:31.953Z,39.00
2022-08-10T14:15:01.311Z,38.59
2022-08-10T14:17:29.021Z,39.20
2022-08-10T14:19:58.717Z,39.25
2022-08-10T14:22:34.028Z,39.16
2022-08-10T14:25:02.306Z,39.34
2022-08-10T14:28:02.116Z,39.59
2022-08-10T14:30:17.884Z,39.35
2022-08-10T14:32:45.629Z,39.40
2022-08-10T14:36:21.548Z,39.38
2022-08-10T14:38:02.812Z,39.33
2022-08-10T14:40:31.406Z,39.16
2022-08-10T14:42:59.125Z,39.35
2022-08-10T14:45:26.999Z,39.08
2022-08-10T14:47:59.298Z,39.04
2022-08-10T14:50:32.771Z,38.86
2022-08-10T14:53:01.203Z,38.64
2022-08-10T14:55:28.966Z,39.20
2022-08-10T14:58:16.907Z,38.66
2022-08-10T15:00:46.093Z,39.13
2022-08-10T15:03:59.610Z,38.91
2022-08-10T15:06:02.435Z,39.25
2022-08-10T15:08:36.889Z,38.76
2022-08-10T15:11:04.989Z,39.04
2022-08-10T15:13:34.593Z,39.13
2022-08-10T15:16:12.527Z,38.51
2022-08-10T15:18:41.987Z,39.12
2022-08-10T15:21:35.633Z,39.32
2022-08-10T15:24:10.908Z,38.69
2022-08-10T15:26:38.686Z,38.77
2022-08-10T15:29:24.402Z,38.75
2022-08-10T15:32:11.433Z,38.99
2022-08-10T15:34:56.705Z,38.90
2022-08-10T15:37:47.165Z,38.37
2022-08-10T15:40:25.053Z,38.70
2022-08-10T15:42:58.418Z,38.56
2022-08-10T15:45:26.291Z,38.31
2022-08-10T15:48:02.930Z,38.56
2022-08-10T15:50:31.637Z,38.39
2022-08-10T15:53:01.801Z,38.71
2022-08-10T15:55:43.710Z,38.54
2022-08-10T15:58:13.426Z,38.66
2022-08-10T16:00:41.249Z,39.27
2022-08-10T16:03:12.988Z,39.19
2022-08-10T16:06:02.027Z,38.81
2022-08-10T16:08:29.009Z,39.30
2022-08-10T16:10:56.729Z,39.46
2022-08-10T16:13:51.058Z,39.73
2022-08-10T16:16:12.579Z,39.63
2022-08-10T16:18:40.343Z,39.64
2022-08-10T16:21:08.274Z,39.23
2022-08-10T16:23:35.968Z,39.42
2022-08-10T16:26:14.742Z,39.41
2022-08-10T16:28:43.717Z,39.60
2022-08-10T16:31:11.442Z,39.58
2022-08-10T16:33:52.796Z,39.53
2022-08-10T16:36:22.544Z,39.62
2022-08-10T16:38:50.277Z,39.86
2022-08-10T16:42:00.780Z,39.52
2022-08-10T16:44:06.459Z,39.23
2022-08-10T16:46:49.570Z,39.58
2022-08-10T16:49:17.455Z,39.61
2022-08-10T16:51:45.237Z,39.68
2022-08-10T16:54:13.003Z,39.64
2022-08-10T16:56:48.857Z,39.65
2022-08-10T16:59:17.762Z,39.71
2022-08-10T17:01:51.505Z,39.67
2022-08-10T17:04:22.042Z,39.67
2022-08-10T17:06:55.241Z,39.58
2022-08-10T17:09:23.762Z,39.67
2022-08-10T17:11:51.530Z,39.45
2022-08-10T17:14:19.267Z,39.69
2022-08-10T17:16:47.000Z,39.62
2022-08-10T17:19:14.872Z,39.65
2022-08-10T17:21:51.817Z,39.60
2022-08-10T17:24:20.003Z,39.64
2022-08-10T17:26:47.716Z,39.75
2022-08-10T17:29:50.599Z,39.57
2022-08-10T17:32:03.994Z,39.71
2022-08-10T17:34:31.779Z,39.72
2022-08-10T17:36:59.530Z,39.61
2022-08-10T17:39:27.466Z,39.66
2022-08-10T17:41:55.218Z,39.32
2022-08-10T17:44:22.933Z,39.87
2022-08-10T17:46:50.640Z,39.64
2022-08-10T17:49:18.557Z,39.66
2022-08-10T17:51:46.286Z,39.65
2022-08-10T17:54:13.968Z,39.70
2022-08-10T17:56:41.722Z,39.98
2022-08-10T17:59:17.182Z,39.65
2022-08-10T18:01:58.939Z,39.69
2022-08-10T18:04:35.648Z,39.67
2022-08-10T18:07:09.340Z,39.90
2022-08-10T18:09:37.079Z,39.91
2022-08-10T18:12:10.297Z,39.85
2022-08-10T18:14:46.006Z,39.64
2022-08-10T18:17:13.816Z,39.98
2022-08-10T18:19:41.715Z,39.80
2022-08-10T18:22:09.524Z,39.89
2022-08-10T18:24:37.240Z,39.77
2022-08-10T18:27:07.112Z,39.69
2022-08-10T18:29:34.973Z,39.77
2022-08-10T18:32:03.020Z,39.85
2022-08-10T18:34:30.778Z,39.97
2022-08-10T18:36:58.542Z,39.74
2022-08-10T18:39:26.499Z,39.95
2022-08-10T18:42:00.561Z,39.95
2022-08-10T18:44:33.043Z,40.05
2022-08-10T18:47:00.917Z,39.93
2022-08-10T18:49:28.649Z,39.91
2022-08-10T18:51:57.072Z,39.91
2022-08-10T18:54:31.699Z,39.90
2022-08-10T18:57:11.900Z,39.85
2022-08-10T18:59:40.328Z,39.95
2022-08-10T19:02:28.649Z,40.16
2022-08-10T19:04:56.626Z,40.00
2022-08-10T19:07:24.484Z,39.98
2022-08-10T19:09:52.240Z,40.02
2022-08-10T19:15:01.994Z,39.91
2022-08-10T19:18:01.248Z,39.69
2022-08-10T19:20:22.054Z,40.22
2022-08-10T19:22:49.799Z,39.80
2022-08-10T19:25:17.545Z,40.13
2022-08-10T19:28:06.381Z,39.92
2022-08-10T19:30:34.304Z,39.82
2022-08-10T19:33:02.026Z,40.12
2022-08-10T19:35:29.790Z,40.04
2022-08-10T19:38:00.762Z,40.22
2022-08-10T19:40:43.915Z,40.30
2022-08-10T19:43:12.688Z,40.55
2022-08-10T19:46:01.420Z,40.34
2022-08-10T19:48:30.844Z,40.19
2022-08-10T19:50:58.543Z,40.24
2022-08-10T19:53:26.283Z,40.22
2022-08-10T19:55:54.073Z,40.20
2022-08-10T19:58:22.150Z,40.26
2022-08-10T20:00:50.416Z,40.25
2022-08-10T20:03:18.338Z,40.12
2022-08-10T20:06:19.567Z,40.30
2022-08-10T20:08:34.115Z,40.20
2022-08-10T20:11:01.829Z,40.23
2022-08-10T20:13:29.558Z,40.23
2022-08-10T20:15:57.273Z,40.23
2022-08-10T20:18:25.281Z,40.18
2022-08-10T20:20:53.268Z,39.91
2022-08-10T20:23:21.113Z,40.22
2022-08-10T20:25:48.873Z,40.19
2022-08-10T20:28:16.718Z,40.25
2022-08-10T20:30:44.457Z,40.11
2022-08-10T20:33:12.343Z,39.99
2022-08-10T20:35:40.328Z,40.07
2022-08-10T20:38:08.249Z,40.05
2022-08-10T20:40:36.323Z,39.96
2022-08-10T20:43:04.087Z,40.06
2022-08-10T20:45:51.821Z,40.28
2022-08-10T20:48:21.265Z,40.15
2022-08-10T20:50:49.039Z,40.30
2022-08-10T20:53:16.769Z,40.05
2022-08-10T20:55:46.992Z,39.90
2022-08-10T20:58:24.052Z,40.34
2022-08-10T21:00:52.553Z,39.85
2022-08-10T21:03:22.181Z,40.46
2022-08-10T21:05:53.660Z,40.20
2022-08-10T21:08:22.577Z,40.46
2022-08-10T21:10:50.507Z,40.45
2022-08-10T21:13:18.216Z,40.01
2022-08-10T21:15:45.928Z,40.25
2022-08-10T21:18:14.135Z,40.13
2022-08-10T21:20:54.359Z,40.23
2022-08-10T21:23:22.754Z,40.08
2022-08-10T21:25:59.078Z,40.19
2022-08-10T21:28:29.070Z,40.14
2022-08-10T21:30:55.959Z,40.20
2022-08-10T21:33:22.541Z,39.99
2022-08-10T21:35:49.132Z,40.23
2022-08-10T21:38:15.672Z,40.23
2022-08-10T21:41:18.082Z,40.27
2022-08-10T21:43:51.648Z,40.30
2022-08-10T21:46:37.006Z,40.61
2022-08-10T21:49:23.034Z,40.56
2022-08-10T21:52:08.774Z,40.26
2022-08-10T21:54:54.200Z,40.49
2022-08-10T21:57:43.385Z,40.36
2022-08-10T22:00:29.531Z,40.39
2022-08-10T22:03:14.872Z,40.43
2022-08-10T22:06:03.212Z,40.03
2022-08-10T22:08:48.502Z,40.31
2022-08-10T22:11:37.371Z,40.32
2022-08-10T22:14:22.877Z,40.45
2022-08-10T22:17:59.987Z,40.52
2022-08-10T22:20:16.293Z,40.26
2022-08-10T22:23:19.317Z,40.19
2022-08-10T22:26:12.180Z,40.40
2022-08-10T22:28:57.574Z,40.19
2022-08-10T22:31:43.340Z,40.19
2022-08-10T22:34:28.770Z,40.01
2022-08-10T22:37:13.907Z,40.19
2022-08-10T22:40:11.756Z,40.51
2022-08-10T22:43:11.145Z,40.45
2022-08-10T22:45:57.408Z,40.65
2022-08-10T22:48:43.091Z,40.10
2022-08-10T22:51:15.677Z,40.07
2022-08-10T22:54:01.200Z,40.13
2022-08-10T22:56:46.283Z,40.29
2022-08-10T22:59:14.036Z,40.33
2022-08-10T23:02:07.876Z,40.25
2022-08-10T23:04:35.648Z,40.42
2022-08-10T23:07:03.968Z,40.56
2022-08-10T23:09:34.880Z,40.16
2022-08-10T23:12:02.719Z,40.34
2022-08-10T23:14:35.824Z,40.39
2022-08-10T23:17:21.174Z,40.46
2022-08-10T23:19:51.339Z,40.58
2022-08-10T23:22:19.006Z,40.10
2022-08-10T23:24:46.861Z,40.15
2022-08-10T23:27:38.781Z,40.19
2022-08-10T23:30:10.881Z,40.19
2022-08-10T23:32:44.658Z,40.18
2022-08-10T23:36:31.773Z,40.25
2022-08-10T23:37:59.987Z,40.32
2022-08-10T23:40:27.693Z,40.17
2022-08-10T23:42:55.406Z,40.30
2022-08-10T23:45:23.120Z,40.27
2022-08-10T23:47:51.016Z,40.44
2022-08-10T23:50:18.765Z,40.54
2022-08-10T23:52:46.649Z,40.47
2022-08-10T23:55:14.344Z,40.51
2022-08-10T23:57:42.114Z,40.18
